createdAt,value
2017-10-20T00:01:22.624Z,49.57
2017-10-20T00:03:50.232Z,47.43
2017-10-20T00:06:18.161Z,47.00
2017-10-20T00:08:46.034Z,46.50
2017-10-20T00:11:13.621Z,48.03
2017-10-20T00:13:41.238Z,46.00
2017-10-20T00:16:08.818Z,45.60
2017-10-20T00:18:36.440Z,45.13
2017-10-20T00:21:04.061Z,45.67
2017-10-20T00:23:31.650Z,44.87
2017-10-20T00:25:59.370Z,46.67
2017-10-20T00:28:26.966Z,44.43
2017-10-20T00:30:54.597Z,44.47
2017-10-20T00:33:22.462Z,43.50
2017-10-20T00:35:50.057Z,42.47
2017-10-20T00:38:17.666Z,45.27
2017-10-20T00:40:45.259Z,44.30
2017-10-20T00:43:12.877Z,43.37
2017-10-20T00:45:40.457Z,43.30
2017-10-20T00:48:08.341Z,44.10
2017-10-20T00:50:35.969Z,41.03
2017-10-20T00:53:03.554Z,41.20
2017-10-20T00:55:31.429Z,45.37
2017-10-20T00:57:59.032Z,41.57
2017-10-20T01:00:26.653Z,41.73
2017-10-20T01:02:54.263Z,43.37
2017-10-20T01:05:21.845Z,41.80
2017-10-20T01:07:49.473Z,41.83
2017-10-20T01:10:17.069Z,41.40
2017-10-20T01:12:44.662Z,40.43
2017-10-20T01:15:12.280Z,40.83
2017-10-20T01:17:39.924Z,40.17
2017-10-20T01:20:07.538Z,39.57
2017-10-20T01:22:35.127Z,39.20
2017-10-20T01:25:02.708Z,38.90
2017-10-20T01:27:30.637Z,40.43
2017-10-20T01:29:58.233Z,41.37
2017-10-20T01:32:25.891Z,38.77
2017-10-20T01:34:53.479Z,39.40
2017-10-20T01:37:21.105Z,40.33
2017-10-20T01:39:48.721Z,39.90
2017-10-20T01:42:16.305Z,40.53
2017-10-20T01:44:43.933Z,40.30
2017-10-20T01:47:11.512Z,39.87
2017-10-20T01:49:39.104Z,39.57
2017-10-20T01:52:06.731Z,38.23
2017-10-20T01:54:34.313Z,39.70
2017-10-20T01:57:01.943Z,38.80
2017-10-20T01:59:29.532Z,38.53
2017-10-20T02:01:57.186Z,39.90
2017-10-20T02:04:24.812Z,37.43
2017-10-20T02:06:52.405Z,40.20
2017-10-20T02:09:20.299Z,38.40
2017-10-20T02:11:47.885Z,37.80
2017-10-20T02:14:15.468Z,38.03
2017-10-20T02:16:43.085Z,39.70
2017-10-20T02:19:10.668Z,40.17
2017-10-20T02:21:38.300Z,38.97
2017-10-20T02:24:05.894Z,38.07
2017-10-20T02:26:33.497Z,37.80
2017-10-20T02:29:01.397Z,37.00
2017-10-20T02:31:28.979Z,37.30
2017-10-20T02:33:56.641Z,36.33
2017-10-20T02:36:24.249Z,38.67
2017-10-20T02:38:52.149Z,40.23
2017-10-20T02:41:19.776Z,37.23
2017-10-20T02:43:47.682Z,37.43
2017-10-20T02:46:15.313Z,38.63
2017-10-20T02:48:42.921Z,37.87
2017-10-20T02:51:10.519Z,37.93
2017-10-20T02:53:38.447Z,38.07
2017-10-20T02:56:06.034Z,38.30
2017-10-20T02:58:33.666Z,37.10
2017-10-20T03:01:01.552Z,37.30
2017-10-20T03:03:29.144Z,37.53
2017-10-20T03:05:56.752Z,37.37
2017-10-20T03:08:24.350Z,37.67
2017-10-20T03:10:51.985Z,35.90
2017-10-20T03:13:19.569Z,37.70
2017-10-20T03:15:47.148Z,36.00
2017-10-20T03:18:14.807Z,35.30
2017-10-20T03:20:42.459Z,35.77
2017-10-20T03:23:10.084Z,36.67
2017-10-20T03:25:37.694Z,35.87
2017-10-20T03:28:05.281Z,35.30
2017-10-20T03:30:32.897Z,35.63
2017-10-20T03:33:00.569Z,36.37
2017-10-20T03:35:28.188Z,35.43
2017-10-20T03:37:55.778Z,39.37
2017-10-20T03:40:23.730Z,35.70
2017-10-20T03:42:51.349Z,35.33
2017-10-20T03:45:18.937Z,34.00
2017-10-20T03:47:46.920Z,36.27
2017-10-20T03:50:14.561Z,36.27
2017-10-20T03:52:42.147Z,36.43
2017-10-20T03:55:09.814Z,34.90
2017-10-20T03:57:37.405Z,34.10
2017-10-20T04:00:05.265Z,34.87
2017-10-20T04:02:32.849Z,37.23
2017-10-20T04:05:00.446Z,35.47
2017-10-20T04:07:28.072Z,34.57
2017-10-20T04:09:55.995Z,34.17
2017-10-20T04:12:23.616Z,34.10
2017-10-20T04:14:51.211Z,34.93
2017-10-20T04:17:18.796Z,46.43
2017-10-20T04:19:46.746Z,35.20
2017-10-20T04:22:14.339Z,35.73
2017-10-20T04:24:41.969Z,36.87
2017-10-20T04:27:09.566Z,35.17
2017-10-20T04:29:37.156Z,37.20
2017-10-20T04:32:04.816Z,36.30
2017-10-20T04:34:32.401Z,34.10
2017-10-20T04:37:00.493Z,36.50
2017-10-20T04:39:28.365Z,35.20
2017-10-20T04:41:55.960Z,34.60
2017-10-20T04:44:23.600Z,37.70
2017-10-20T04:46:51.188Z,34.00
2017-10-20T04:49:18.817Z,35.10
2017-10-20T04:51:46.409Z,34.47
2017-10-20T04:54:14.008Z,36.30
2017-10-20T04:56:41.684Z,34.10
2017-10-20T04:59:09.562Z,36.03
2017-10-20T05:01:37.195Z,35.87
2017-10-20T05:04:04.789Z,33.80
2017-10-20T05:06:32.372Z,34.17
2017-10-20T05:08:59.986Z,35.17
2017-10-20T05:11:27.578Z,35.40
2017-10-20T05:13:55.206Z,34.97
2017-10-20T05:16:22.795Z,34.70
2017-10-20T05:18:50.373Z,36.27
2017-10-20T05:21:18.380Z,35.60
2017-10-20T05:23:45.978Z,34.87
2017-10-20T05:26:13.600Z,34.00
2017-10-20T05:28:41.184Z,33.00
2017-10-20T05:31:08.824Z,33.47
2017-10-20T05:33:36.442Z,36.60
2017-10-20T05:36:04.029Z,33.47
2017-10-20T05:38:31.663Z,33.47
2017-10-20T05:40:59.244Z,33.17
2017-10-20T05:43:26.821Z,33.47
2017-10-20T05:45:54.756Z,32.03
2017-10-20T05:48:22.338Z,34.57
2017-10-20T05:50:49.989Z,34.90
2017-10-20T05:53:17.582Z,35.43
2017-10-20T05:55:46.019Z,35.50
2017-10-20T05:58:13.637Z,34.57
2017-10-20T06:00:41.216Z,35.83
2017-10-20T06:03:08.897Z,36.80
2017-10-20T06:05:36.545Z,33.87
2017-10-20T06:08:04.133Z,32.60
2017-10-20T06:10:31.767Z,34.87
2017-10-20T06:12:59.430Z,34.30
2017-10-20T06:15:27.058Z,32.43
2017-10-20T06:17:54.638Z,34.70
2017-10-20T06:20:22.285Z,34.30
2017-10-20T06:22:49.902Z,34.77
2017-10-20T06:25:17.527Z,36.00
2017-10-20T06:27:45.155Z,33.17
2017-10-20T06:30:12.731Z,35.17
2017-10-20T06:32:40.340Z,33.10
2017-10-20T06:35:08.016Z,33.43
2017-10-20T06:37:35.611Z,33.30
2017-10-20T06:40:03.255Z,35.80
2017-10-20T06:42:30.842Z,33.67
2017-10-20T06:44:58.439Z,35.43
2017-10-20T06:47:26.065Z,34.00
2017-10-20T06:49:53.648Z,34.00
2017-10-20T06:52:21.257Z,33.90
2017-10-20T06:54:48.888Z,36.77
2017-10-20T06:57:17.346Z,35.60
2017-10-20T07:02:18.764Z,33.47
2017-10-20T07:04:46.401Z,34.00
2017-10-20T07:07:14.103Z,35.73
2017-10-20T07:09:41.732Z,36.03
2017-10-20T07:12:09.324Z,37.57
2017-10-20T07:14:36.944Z,36.60
2017-10-20T07:17:04.563Z,35.37
2017-10-20T07:19:40.905Z,34.60
2017-10-20T07:22:08.581Z,35.00
2017-10-20T07:24:36.162Z,33.20
2017-10-20T07:27:03.812Z,35.47
2017-10-20T07:29:31.400Z,34.20
2017-10-20T07:31:59.030Z,35.37
2017-10-20T07:34:26.678Z,35.23
2017-10-20T07:36:54.264Z,34.10
2017-10-20T07:39:21.897Z,35.67
2017-10-20T07:41:49.476Z,32.73
2017-10-20T07:44:17.248Z,32.83
2017-10-20T07:46:44.860Z,34.13
2017-10-20T07:49:12.552Z,34.67
2017-10-20T07:51:40.175Z,33.77
2017-10-20T07:54:07.787Z,33.20
2017-10-20T07:56:35.414Z,34.20
2017-10-20T07:59:03.071Z,34.27
2017-10-20T08:01:30.968Z,35.10
2017-10-20T08:03:58.593Z,31.77
2017-10-20T08:06:26.605Z,31.90
2017-10-20T08:08:54.236Z,35.00
2017-10-20T08:11:21.821Z,33.57
2017-10-20T08:13:49.702Z,32.50
2017-10-20T08:16:17.329Z,36.60
2017-10-20T08:18:44.917Z,36.30
2017-10-20T08:21:12.570Z,32.90
2017-10-20T08:23:40.169Z,32.10
2017-10-20T08:26:07.756Z,34.87
2017-10-20T08:28:35.393Z,37.07
2017-10-20T08:31:03.052Z,33.20
2017-10-20T08:33:30.997Z,33.27
2017-10-20T08:35:58.607Z,31.80
2017-10-20T08:38:26.191Z,33.93
2017-10-20T08:40:54.197Z,32.67
2017-10-20T08:43:21.799Z,32.13
2017-10-20T08:45:49.426Z,30.27
2017-10-20T08:48:17.009Z,33.70
2017-10-20T08:50:44.869Z,28.90
2017-10-20T08:53:12.720Z,32.07
2017-10-20T08:55:40.309Z,31.57
2017-10-20T08:58:07.950Z,30.70
2017-10-20T09:00:35.803Z,29.10
2017-10-20T09:03:03.406Z,31.67
2017-10-20T09:05:31.022Z,28.87
2017-10-20T09:07:58.621Z,29.90
2017-10-20T09:10:26.245Z,28.67
2017-10-20T09:12:53.832Z,30.30
2017-10-20T09:15:21.804Z,31.00
2017-10-20T09:17:49.419Z,28.97
2017-10-20T09:20:17.006Z,28.70
2017-10-20T09:22:44.984Z,28.90
2017-10-20T09:25:12.578Z,28.50
2017-10-20T09:27:40.168Z,30.50
2017-10-20T09:30:07.774Z,27.97
2017-10-20T09:32:35.627Z,29.10
2017-10-20T09:35:03.269Z,28.83
2017-10-20T09:37:30.849Z,28.90
2017-10-20T09:39:58.431Z,29.17
2017-10-20T09:42:26.064Z,29.63
2017-10-20T09:44:53.668Z,29.00
2017-10-20T09:47:21.307Z,28.00
2017-10-20T09:49:48.907Z,28.80
2017-10-20T09:52:16.541Z,28.97
2017-10-20T09:54:44.162Z,29.37
2017-10-20T09:57:11.752Z,29.50
2017-10-20T09:59:39.376Z,28.83
2017-10-20T10:02:06.969Z,28.77
2017-10-20T10:04:34.556Z,28.37
2017-10-20T10:07:02.174Z,29.57
2017-10-20T10:09:29.757Z,27.20
2017-10-20T10:11:57.376Z,28.17
2017-10-20T10:14:24.964Z,29.93
2017-10-20T10:16:52.556Z,29.57
2017-10-20T10:19:20.184Z,28.87
2017-10-20T10:21:49.843Z,28.90
2017-10-20T10:24:17.660Z,29.67
2017-10-20T10:26:45.288Z,30.13
2017-10-20T10:29:12.885Z,28.83
2017-10-20T10:31:40.493Z,28.13
2017-10-20T10:34:08.076Z,27.83
2017-10-20T10:36:35.713Z,27.10
2017-10-20T10:39:03.330Z,28.50
2017-10-20T10:41:30.927Z,28.33
2017-10-20T10:43:58.883Z,29.03
2017-10-20T10:46:26.474Z,28.70
2017-10-20T10:48:54.393Z,29.40
2017-10-20T10:51:21.982Z,27.33
2017-10-20T10:53:49.572Z,28.73
2017-10-20T10:56:17.502Z,28.87
2017-10-20T10:58:45.102Z,28.90
2017-10-20T11:01:12.840Z,28.33
2017-10-20T11:03:40.462Z,28.33
2017-10-20T11:06:19.853Z,30.20
2017-10-20T11:08:59.266Z,29.03
2017-10-20T11:11:38.688Z,27.63
2017-10-20T11:14:06.282Z,27.20
2017-10-20T11:16:33.868Z,27.33
2017-10-20T11:19:01.476Z,30.00
2017-10-20T11:21:29.094Z,29.27
2017-10-20T11:23:56.718Z,26.40
2017-10-20T11:26:24.584Z,28.10
2017-10-20T11:28:52.181Z,26.57
2017-10-20T11:31:19.805Z,27.37
2017-10-20T11:33:47.390Z,26.27
2017-10-20T11:36:15.052Z,27.67
2017-10-20T11:38:42.640Z,27.90
2017-10-20T11:41:10.361Z,26.77
2017-10-20T11:43:37.972Z,28.40
2017-10-20T11:46:05.632Z,26.83
2017-10-20T11:48:33.554Z,28.20
2017-10-20T11:51:01.149Z,28.07
2017-10-20T11:53:28.742Z,29.30
2017-10-20T11:55:56.365Z,28.40
2017-10-20T11:58:23.954Z,29.13
2017-10-20T12:00:51.870Z,27.70
2017-10-20T12:03:19.448Z,27.03
2017-10-20T12:05:47.055Z,27.63
2017-10-20T12:08:14.675Z,29.00
2017-10-20T12:10:42.285Z,28.50
2017-10-20T12:13:09.901Z,28.87
2017-10-20T12:15:37.496Z,29.10
2017-10-20T12:18:05.089Z,27.80
2017-10-20T12:20:32.771Z,28.07
2017-10-20T12:23:00.433Z,29.50
2017-10-20T12:25:28.072Z,28.80
2017-10-20T12:27:55.656Z,27.63
2017-10-20T12:30:23.240Z,26.63
2017-10-20T12:32:50.863Z,27.90
2017-10-20T12:35:18.453Z,27.50
2017-10-20T12:37:46.106Z,26.97
2017-10-20T12:40:13.745Z,28.13
2017-10-20T12:42:41.339Z,28.73
2017-10-20T12:45:08.964Z,28.47
2017-10-20T12:47:36.557Z,29.40
2017-10-20T12:50:04.228Z,28.30
2017-10-20T12:52:31.825Z,29.73
2017-10-20T12:54:59.417Z,27.40
2017-10-20T12:57:27.049Z,28.23
2017-10-20T12:59:54.640Z,28.30
2017-10-20T13:02:22.271Z,30.40
2017-10-20T13:04:49.905Z,28.37
2017-10-20T13:07:17.493Z,27.63
2017-10-20T13:09:45.113Z,27.90
2017-10-20T13:12:12.972Z,28.70
2017-10-20T13:14:40.624Z,30.00
2017-10-20T13:17:08.217Z,27.43
2017-10-20T13:19:35.819Z,28.63
2017-10-20T13:22:03.439Z,29.20
2017-10-20T13:24:31.036Z,28.17
2017-10-20T13:26:58.664Z,28.47
2017-10-20T13:29:26.273Z,28.97
2017-10-20T13:31:53.868Z,28.37
2017-10-20T13:34:21.496Z,28.93
2017-10-20T13:36:50.012Z,29.73
2017-10-20T13:39:17.985Z,28.23
2017-10-20T13:41:45.568Z,28.20
2017-10-20T13:44:13.205Z,28.77
2017-10-20T13:46:40.840Z,28.70
2017-10-20T13:49:08.436Z,28.70
2017-10-20T13:51:36.099Z,29.47
2017-10-20T13:54:03.708Z,30.33
2017-10-20T13:56:31.315Z,28.27
2017-10-20T13:58:58.929Z,27.53
2017-10-20T14:01:26.521Z,28.13
2017-10-20T14:03:54.136Z,27.30
2017-10-20T14:06:21.765Z,29.27
2017-10-20T14:08:49.400Z,28.70
2017-10-20T14:11:17.646Z,27.93
2017-10-20T14:13:45.281Z,28.50
2017-10-20T14:16:12.885Z,27.80
2017-10-20T14:18:40.542Z,29.00
2017-10-20T14:21:08.151Z,27.93
2017-10-20T14:23:35.739Z,27.33
2017-10-20T14:26:03.687Z,28.27
2017-10-20T14:28:31.296Z,27.97
2017-10-20T14:30:58.933Z,28.33
2017-10-20T14:33:26.537Z,28.07
2017-10-20T14:35:54.161Z,28.40
2017-10-20T14:38:21.773Z,29.47
2017-10-20T14:40:49.373Z,29.30
2017-10-20T14:43:17.014Z,31.33
2017-10-20T14:45:44.618Z,30.03
2017-10-20T14:48:12.207Z,31.57
2017-10-20T14:50:39.841Z,30.50
2017-10-20T14:53:07.496Z,26.20
2017-10-20T14:55:35.143Z,30.93
2017-10-20T14:58:02.993Z,28.97
2017-10-20T15:00:30.581Z,30.63
2017-10-20T15:02:58.199Z,30.70
2017-10-20T15:05:25.784Z,31.67
2017-10-20T15:07:53.403Z,30.53
2017-10-20T15:10:21.013Z,30.47
2017-10-20T15:12:48.712Z,31.00
2017-10-20T15:15:16.333Z,28.47
2017-10-20T15:17:43.924Z,30.83
2017-10-20T15:20:11.553Z,31.30
2017-10-20T15:22:39.137Z,29.77
2017-10-20T15:25:06.725Z,29.47
2017-10-20T15:27:34.339Z,30.67
2017-10-20T15:30:01.924Z,29.77
2017-10-20T15:32:29.553Z,29.30
2017-10-20T15:34:57.141Z,29.47
2017-10-20T15:37:24.725Z,29.30
2017-10-20T15:39:52.450Z,30.37
2017-10-20T15:42:20.045Z,31.80
2017-10-20T15:44:47.664Z,30.23
2017-10-20T15:47:15.257Z,30.17
2017-10-20T15:49:42.842Z,31.50
2017-10-20T15:52:10.469Z,31.87
2017-10-20T15:54:38.083Z,30.40
2017-10-20T15:57:05.714Z,30.70
2017-10-20T15:59:33.364Z,29.20
2017-10-20T16:02:01.212Z,30.80
2017-10-20T16:04:28.826Z,31.30
2017-10-20T16:06:56.899Z,32.77
2017-10-20T16:09:24.569Z,32.17
2017-10-20T16:11:52.477Z,32.83
2017-10-20T16:14:20.073Z,33.53
2017-10-20T16:16:47.730Z,31.90
2017-10-20T16:19:15.325Z,32.17
2017-10-20T16:21:42.953Z,30.67
2017-10-20T16:24:10.591Z,27.87
2017-10-20T16:26:38.221Z,30.77
2017-10-20T16:29:05.849Z,29.70
2017-10-20T16:31:33.462Z,30.73
2017-10-20T16:34:01.095Z,30.07
2017-10-20T16:36:28.676Z,31.33
2017-10-20T16:38:56.292Z,29.07
2017-10-20T16:41:23.929Z,30.00
2017-10-20T16:43:51.533Z,30.33
2017-10-20T16:46:19.464Z,31.10
2017-10-20T16:48:47.386Z,31.50
2017-10-20T16:51:15.288Z,31.20
2017-10-20T16:53:43.158Z,30.27
2017-10-20T16:56:10.745Z,33.53
2017-10-20T16:58:38.386Z,31.77
2017-10-20T17:01:05.972Z,30.03
2017-10-20T17:03:33.555Z,32.80
2017-10-20T17:06:01.181Z,31.40
2017-10-20T17:08:29.032Z,31.73
2017-10-20T17:10:56.652Z,32.13
2017-10-20T17:13:24.274Z,32.40
2017-10-20T17:15:52.131Z,30.83
2017-10-20T17:18:19.773Z,31.20
2017-10-20T17:20:47.405Z,30.90
2017-10-20T17:23:15.317Z,31.90
2017-10-20T17:25:42.900Z,31.33
2017-10-20T17:28:10.849Z,31.50
2017-10-20T17:30:38.716Z,31.20
2017-10-20T17:33:06.383Z,30.60
2017-10-20T17:35:34.012Z,30.80
2017-10-20T17:38:01.911Z,29.30
2017-10-20T17:40:29.505Z,30.33
2017-10-20T17:42:57.117Z,29.67
2017-10-20T17:45:25.001Z,30.10
2017-10-20T17:47:52.976Z,28.10
2017-10-20T17:50:20.570Z,32.10
2017-10-20T17:52:48.401Z,30.50
2017-10-20T17:55:16.016Z,29.23
2017-10-20T17:57:43.608Z,30.90
2017-10-20T18:00:11.234Z,29.40
2017-10-20T18:02:38.852Z,29.13
2017-10-20T18:05:06.716Z,29.00
2017-10-20T18:07:34.341Z,32.00
2017-10-20T18:10:02.248Z,31.13
2017-10-20T18:12:29.869Z,30.27
2017-10-20T18:14:57.474Z,32.90
2017-10-20T18:17:25.058Z,31.37
2017-10-20T18:19:52.666Z,29.87
2017-10-20T18:22:20.253Z,28.13
2017-10-20T18:24:47.884Z,29.80
2017-10-20T18:27:15.469Z,27.50
2017-10-20T18:29:43.054Z,29.40
2017-10-20T18:32:11.022Z,29.43
2017-10-20T18:34:38.603Z,29.23
2017-10-20T18:37:06.229Z,29.70
2017-10-20T18:39:33.845Z,29.90
2017-10-20T18:42:01.445Z,33.47
2017-10-20T18:44:29.430Z,30.87
2017-10-20T18:46:57.024Z,32.63
2017-10-20T18:49:24.648Z,32.40
2017-10-20T18:51:52.521Z,32.20
2017-10-20T18:54:20.120Z,32.80
2017-10-20T18:56:48.058Z,31.50
2017-10-20T18:59:15.924Z,32.80
2017-10-20T19:01:43.787Z,33.00
2017-10-20T19:04:11.391Z,31.90
2017-10-20T19:06:38.991Z,32.13
2017-10-20T19:09:06.614Z,30.97
2017-10-20T19:11:34.227Z,32.30
2017-10-20T19:14:02.102Z,31.00
2017-10-20T19:16:29.970Z,29.83
2017-10-20T19:18:57.611Z,26.97
2017-10-20T19:21:25.229Z,24.77
2017-10-20T19:23:52.849Z,24.17
2017-10-20T19:26:20.473Z,21.77
2017-10-20T19:28:48.065Z,20.90
2017-10-20T19:31:15.890Z,21.50
2017-10-20T19:33:43.507Z,24.93
2017-10-20T19:36:11.095Z,26.57
2017-10-20T19:38:38.716Z,26.57
2017-10-20T19:41:06.318Z,26.60
2017-10-20T19:43:33.905Z,28.60
2017-10-20T19:46:01.578Z,28.93
2017-10-20T19:48:29.489Z,29.90
2017-10-20T19:50:57.122Z,29.03
2017-10-20T19:53:25.132Z,29.43
2017-10-20T19:55:52.728Z,30.07
2017-10-20T19:58:20.341Z,30.97
2017-10-20T20:00:48.745Z,30.97
2017-10-20T20:03:16.697Z,32.07
2017-10-20T20:05:44.290Z,31.30
2017-10-20T20:08:11.874Z,31.00
2017-10-20T20:10:39.487Z,31.57
2017-10-20T20:13:07.085Z,28.13
2017-10-20T20:15:34.708Z,29.43
2017-10-20T20:18:02.304Z,30.73
2017-10-20T20:20:30.241Z,28.77
2017-10-20T20:22:57.866Z,30.10
2017-10-20T20:25:25.464Z,27.60
2017-10-20T20:27:53.102Z,28.23
2017-10-20T20:30:21.610Z,28.83
2017-10-20T20:32:50.975Z,27.30
2017-10-20T20:35:18.614Z,27.40
2017-10-20T20:37:46.236Z,26.50
2017-10-20T20:40:13.818Z,25.10
2017-10-20T20:42:41.467Z,24.57
2017-10-20T20:45:09.057Z,23.57
2017-10-20T20:47:36.821Z,24.03
2017-10-20T20:50:04.444Z,23.33
2017-10-20T20:52:32.313Z,23.63
2017-10-20T20:55:00.288Z,22.20
2017-10-20T20:57:27.866Z,22.47
2017-10-20T20:59:55.453Z,23.10
2017-10-20T21:02:23.085Z,22.53
2017-10-20T21:04:50.675Z,22.93
2017-10-20T21:07:18.320Z,21.40
2017-10-20T21:09:46.265Z,20.10
2017-10-20T21:12:13.892Z,21.67
2017-10-20T21:14:41.516Z,21.27
2017-10-20T21:17:09.093Z,20.87
2017-10-20T21:19:36.913Z,22.67
2017-10-20T21:22:04.778Z,21.00
2017-10-20T21:24:32.365Z,21.97
2017-10-20T21:26:59.978Z,23.20
2017-10-20T21:29:27.566Z,22.33
2017-10-20T21:31:55.198Z,22.30
2017-10-20T21:34:22.802Z,22.87
2017-10-20T21:36:50.386Z,20.60
2017-10-20T21:39:18.018Z,21.27
2017-10-20T21:41:45.597Z,22.87
2017-10-20T21:44:13.218Z,23.93
2017-10-20T21:46:41.049Z,22.13
2017-10-20T21:49:08.636Z,21.53
2017-10-20T21:51:36.277Z,22.37
2017-10-20T21:54:03.868Z,23.23
2017-10-20T21:56:32.254Z,22.03
2017-10-20T21:59:00.137Z,23.70
2017-10-20T22:01:27.718Z,23.43
2017-10-20T22:03:55.339Z,23.23
2017-10-20T22:06:22.921Z,22.57
2017-10-20T22:08:50.724Z,23.20
2017-10-20T22:11:18.319Z,23.43
2017-10-20T22:13:45.905Z,22.33
2017-10-20T22:16:13.511Z,22.47
2017-10-20T22:18:41.445Z,21.50
2017-10-20T22:21:09.058Z,20.80
2017-10-20T22:23:36.646Z,22.90
2017-10-20T22:26:04.272Z,22.17
2017-10-20T22:28:32.193Z,21.57
2017-10-20T22:30:59.800Z,22.10
2017-10-20T22:33:27.450Z,21.90
2017-10-20T22:35:55.037Z,23.43
2017-10-20T22:38:22.661Z,22.20
2017-10-20T22:40:50.964Z,21.40
2017-10-20T22:43:18.562Z,21.40
2017-10-20T22:45:46.192Z,20.73
2017-10-20T22:48:13.785Z,21.63
2017-10-20T22:50:41.415Z,22.10
2017-10-20T22:53:09.349Z,23.13
2017-10-20T22:55:36.958Z,21.70
2017-10-20T22:58:04.586Z,21.17
2017-10-20T23:00:32.207Z,21.50
2017-10-20T23:02:59.850Z,23.13
2017-10-20T23:05:27.447Z,22.73
2017-10-20T23:07:55.313Z,21.30
2017-10-20T23:10:22.929Z,21.60
2017-10-20T23:12:50.514Z,21.40
2017-10-20T23:15:18.156Z,21.17
2017-10-20T23:17:45.753Z,22.30
2017-10-20T23:20:13.349Z,21.63
2017-10-20T23:22:40.961Z,22.33
2017-10-20T23:25:08.540Z,22.50
2017-10-20T23:27:36.520Z,22.67
2017-10-20T23:30:04.113Z,21.90
2017-10-20T23:32:31.696Z,20.07
2017-10-20T23:34:59.304Z,21.53
2017-10-20T23:37:26.890Z,22.23
2017-10-20T23:39:54.529Z,21.40
2017-10-20T23:42:22.114Z,21.47
2017-10-20T23:44:49.705Z,21.23
2017-10-20T23:47:17.352Z,21.17
2017-10-20T23:49:44.941Z,20.73
2017-10-20T23:52:12.558Z,20.20
2017-10-20T23:54:40.143Z,19.93
2017-10-20T23:57:07.733Z,19.77
2017-10-20T23:59:35.339Z,20.03
